Time;durP1;ratioP1;P1;durP2;ratioP2;P2;SDS_P1;SDS_P2;PMS_P1;PMS_P2;Temp;Humidity;BMP_temperature;BMP_pressure;BME280_temperature;BME280_humidity;BME280_pressure;Samples;Min_cycle;Max_cycle;Signal;HPM_P1;HPM_P2
2019/06/20 00:01:14;;;;;;;7.1;3.6;;;;;;;21.53;57.78906;955.5446;;;;
2019/06/20 00:03:39;;;;;;;4.8;3.1;;;;;;;21.42;58.51855;955.5903;;;;
2019/06/20 00:06:11;;;;;;;6.1;3.2;;;;;;;21.33;58.0332;955.6298;;;;
2019/06/20 00:08:45;;;;;;;6.4;3.7;;;;;;;21.38;58.05078;955.7375;;;;
2019/06/20 00:11:12;;;;;;;6;3.9;;;;;;;21.51;57.75;955.7719;;;;
2019/06/20 00:14:03;;;;;;;5.4;3;;;;;;;21.58;57.38184;955.7971;;;;
2019/06/20 00:16:36;;;;;;;5.5;3.2;;;;;;;21.48;57.86426;955.8375;;;;
2019/06/20 00:19:05;;;;;;;6.6;3.5;;;;;;;21.35;58.41309;955.8945;;;;
2019/06/20 00:21:31;;;;;;;5.9;3.2;;;;;;;21.2;58.74707;955.9238;;;;
2019/06/20 00:23:59;;;;;;;6.1;3.5;;;;;;;21.21;59.3623;956.0122;;;;
2019/06/20 00:26:35;;;;;;;5.9;3;;;;;;;21.17;58.68457;956.0184;;;;
2019/06/20 00:29:08;;;;;;;7.2;3;;;;;;;21.16;58.94434;956.0667;;;;
2019/06/20 00:31:41;;;;;;;4.7;2.7;;;;;;;21.04;58.86816;956.0567;;;;
2019/06/20 00:34:06;;;;;;;5.8;2.9;;;;;;;21.16;58.66113;956.1646;;;;
2019/06/20 00:36:37;;;;;;;5;2.8;;;;;;;21.17;58.38965;956.1641;;;;
2019/06/20 00:39:03;;;;;;;3.5;2.1;;;;;;;21.31;57.79688;956.1519;;;;
2019/06/20 00:41:38;;;;;;;4.7;2.4;;;;;;;21.36;58.54395;956.202;;;;
2019/06/20 00:46:34;;;;;;;4.9;2.4;;;;;;;21.21;55.35352;956.2344;;;;
2019/06/20 00:49:08;;;;;;;4;2.1;;;;;;;21.16;55.91211;956.3014;;;;
2019/06/20 00:51:51;;;;;;;2.9;2;;;;;;;21.35;54.29688;956.4144;;;;
2019/06/20 00:54:18;;;;;;;3;1.9;;;;;;;21.38;54.01758;956.4338;;;;
2019/06/20 00:57:52;;;;;;;3;1.7;;;;;;;21.45;53.80273;956.675;;;;
2019/06/20 00:59:28;;;;;;;4.8;2.2;;;;;;;21.26;54.47461;956.9336;;;;
2019/06/20 01:02:07;;;;;;;3.9;1.8;;;;;;;21.31;55.54199;956.821;;;;
2019/06/20 01:04:50;;;;;;;2.7;1.6;;;;;;;21.25;54.63867;956.8627;;;;
2019/06/20 01:07:22;;;;;;;2.7;1.7;;;;;;;21.38;53.66406;956.8574;;;;
2019/06/20 01:10:00;;;;;;;3.5;1.8;;;;;;;21.27;53.66309;956.8677;;;;
2019/06/20 01:12:26;;;;;;;4;1.9;;;;;;;21.25;53.80078;956.9295;;;;
2019/06/20 01:15:06;;;;;;;2.6;1.6;;;;;;;21.38;54.76074;957.0432;;;;
2019/06/20 01:17:40;;;;;;;2.8;1.7;;;;;;;21.41;53.58496;957.1394;;;;
2019/06/20 01:20:15;;;;;;;2.3;1.6;;;;;;;21.34;53.70703;957.1269;;;;
2019/06/20 01:22:41;;;;;;;5.9;1.8;;;;;;;21.32;53.64453;957.0066;;;;
2019/06/20 01:25:06;;;;;;;8;1.9;;;;;;;21.16;54.49707;956.9695;;;;
2019/06/20 01:27:41;;;;;;;5.2;1.8;;;;;;;21.09;55.25488;956.943;;;;
2019/06/20 01:30:09;;;;;;;3.6;1.9;;;;;;;20.91;56.36426;956.9045;;;;
2019/06/20 01:33:15;;;;;;;2.2;1.6;;;;;;;20.73;57.2832;957.016;;;;
2019/06/20 01:35:43;;;;;;;3;1.6;;;;;;;20.83;57.21387;957.0683;;;;
2019/06/20 01:38:14;;;;;;;3.6;1.6;;;;;;;20.7;57.51465;957.1344;;;;
2019/06/20 01:40:47;;;;;;;2;1.5;;;;;;;20.62;57.37598;957.114;;;;
2019/06/20 01:43:12;;;;;;;2.3;1.5;;;;;;;20.61;57.64648;957.1813;;;;
2019/06/20 01:45:41;;;;;;;2.1;1.5;;;;;;;20.44;58.12891;957.2695;;;;
2019/06/20 01:48:04;;;;;;;3.1;1.4;;;;;;;20.43;58.50488;957.2383;;;;
2019/06/20 01:50:32;;;;;;;2.3;1.4;;;;;;;20.51;58.50391;957.3176;;;;
2019/06/20 01:53:11;;;;;;;3.2;1.5;;;;;;;20.58;58.20703;957.2642;;;;
2019/06/20 01:55:48;;;;;;;2;1.3;;;;;;;20.28;59.41406;957.298;;;;
2019/06/20 01:58:45;;;;;;;2.6;1.4;;;;;;;20.25;59.43457;957.365;;;;
2019/06/20 02:00:56;;;;;;;1.7;1.2;;;;;;;20.21;60.18164;957.4402;;;;
2019/06/20 02:03:30;;;;;;;3.7;1.4;;;;;;;20.29;59.86426;957.4922;;;;
2019/06/20 02:05:45;;;;;;;2.9;1.4;;;;;;;20.23;59.95996;957.569;;;;
2019/06/20 02:08:22;;;;;;;2.2;1.5;;;;;;;20.16;60.61035;957.5168;;;;
2019/06/20 02:13:25;;;;;;;2;1.4;;;;;;;20.26;62.3877;957.4799;;;;
2019/06/20 02:15:57;;;;;;;3;1.5;;;;;;;20.25;60.48145;957.359;;;;
2019/06/20 02:18:19;;;;;;;3.7;1.3;;;;;;;20.16;62.1748;957.2222;;;;
2019/06/20 02:20:45;;;;;;;3.9;1.8;;;;;;;20.03;66.53223;957.2562;;;;
2019/06/20 02:23:15;;;;;;;2.9;1.6;;;;;;;19.6;66.23145;957.2131;;;;
2019/06/20 02:25:58;;;;;;;3.2;1.5;;;;;;;19.36;66.87598;957.1641;;;;
2019/06/20 02:28:26;;;;;;;3;1.8;;;;;;;19.39;68.24414;957.132;;;;
2019/06/20 02:33:16;;;;;;;1.9;1.7;;;;;;;19.48;69.52539;957.0765;;;;
2019/06/20 02:35:48;;;;;;;4.9;1.9;;;;;;;19.42;71.00781;957.0157;;;;
2019/06/20 02:38:18;;;;;;;1.9;1.7;;;;;;;19.39;67.80957;957.1278;;;;
2019/06/20 02:40:48;;;;;;;3.3;1.7;;;;;;;19.42;69.54004;957.2447;;;;
2019/06/20 02:43:28;;;;;;;1.8;1.6;;;;;;;19.44;69.14453;957.2839;;;;
2019/06/20 02:46:00;;;;;;;2.6;1.9;;;;;;;19.35;71.79492;957.1813;;;;
2019/06/20 02:48:25;;;;;;;3.7;1.9;;;;;;;19.14;72.7832;957.253;;;;
2019/06/20 02:50:53;;;;;;;3.2;1.9;;;;;;;19.16;70.86035;957.2396;;;;
2019/06/20 02:53:34;;;;;;;3.3;1.9;;;;;;;19.27;70.78516;957.1714;;;;
2019/06/20 02:56:20;;;;;;;4.2;1.9;;;;;;;19.34;70.33789;957.1726;;;;
2019/06/20 02:58:54;;;;;;;3.7;2.3;;;;;;;19.53;69.20508;957.0779;;;;
2019/06/20 03:01:24;;;;;;;4.5;2.3;;;;;;;19.35;71.04395;957.0903;;;;
2019/06/20 03:03:51;;;;;;;2.6;2.1;;;;;;;19.38;70.36719;957.0742;;;;
2019/06/20 03:06:21;;;;;;;3.9;2.3;;;;;;;19.39;70.52246;957.1023;;;;
2019/06/20 03:09:01;;;;;;;2.7;2.1;;;;;;;19.37;70.2832;957.1075;;;;
2019/06/20 03:11:33;;;;;;;3.4;2.2;;;;;;;19.27;71.05371;957.2104;;;;
2019/06/20 03:14:17;;;;;;;2.7;2;;;;;;;19.16;71.44727;957.1733;;;;
2019/06/20 03:16:42;;;;;;;2.6;2;;;;;;;19.22;71.08203;957.1666;;;;
2019/06/20 03:19:08;;;;;;;3.7;2.3;;;;;;;19.22;71.03516;957.1672;;;;
2019/06/20 03:21:45;;;;;;;2.7;2.1;;;;;;;19.12;72.56836;957.2361;;;;
2019/06/20 03:24:19;;;;;;;2.5;2;;;;;;;19.15;71.72754;957.2745;;;;
2019/06/20 03:26:44;;;;;;;2.8;2.2;;;;;;;19.2;71.71289;957.2336;;;;
2019/06/20 03:29:29;;;;;;;2.9;2.2;;;;;;;19.34;71.45313;957.2006;;;;
2019/06/20 03:32:08;;;;;;;3.3;2.5;;;;;;;19.2;73.1084;957.1792;;;;
2019/06/20 03:34:34;;;;;;;3.9;2.5;;;;;;;19.19;72.61426;957.1992;;;;
2019/06/20 03:36:58;;;;;;;3.8;2.5;;;;;;;19.14;72.60645;957.1764;;;;
2019/06/20 03:39:26;;;;;;;5.1;2.9;;;;;;;18.99;73.03906;957.2408;;;;
2019/06/20 03:41:47;;;;;;;4.6;2.9;;;;;;;18.93;73.35742;957.2569;;;;
2019/06/20 03:44:23;;;;;;;2.4;2.2;;;;;;;19.16;72.75098;957.3147;;;;
2019/06/20 03:47:06;;;;;;;4.7;2.9;;;;;;;19.12;73.08398;957.4659;;;;
2019/06/20 03:49:45;;;;;;;3.5;2.6;;;;;;;19.11;74.02051;957.6205;;;;
2019/06/20 03:53:24;;;;;;;4;2.5;;;;;;;19.15;72.74902;957.5778;;;;
2019/06/20 03:56:23;;;;;;;4;2.5;;;;;;;19.22;72.71289;957.4824;;;;
2019/06/20 03:58:48;;;;;;;3.9;2.5;;;;;;;19.19;72.94238;957.5108;;;;
2019/06/20 04:02:48;;;;;;;3.9;2.2;;;;;;;19.2;71.55957;957.5577;;;;
2019/06/20 04:05:20;;;;;;;3.5;2.4;;;;;;;19.13;71.87793;957.5927;;;;
2019/06/20 04:07:55;;;;;;;2.9;2.2;;;;;;;19.17;72.49414;957.6838;;;;
2019/06/20 04:10:33;;;;;;;3.4;2.2;;;;;;;19.16;71.01367;957.7402;;;;
2019/06/20 04:13:13;;;;;;;4.8;2.1;;;;;;;19.07;72.53613;957.7394;;;;
2019/06/20 04:15:41;;;;;;;2.8;2.1;;;;;;;19.2;71.34766;957.8122;;;;
2019/06/20 04:18:10;;;;;;;3;2.2;;;;;;;19.2;71.42969;957.8254;;;;
2019/06/20 04:20:32;;;;;;;3.2;2.1;;;;;;;19.32;70.5918;957.7993;;;;
2019/06/20 04:23:22;;;;;;;3.3;2.1;;;;;;;19.13;70.87891;957.7523;;;;
2019/06/20 04:25:41;;;;;;;2.6;1.9;;;;;;;18.98;71.04297;957.6764;;;;
2019/06/20 04:28:13;;;;;;;3.3;2.2;;;;;;;19.01;71.38672;957.7024;;;;
2019/06/20 04:30:39;;;;;;;3.8;2;;;;;;;19.15;72.35156;957.6917;;;;
2019/06/20 04:33:18;;;;;;;2.9;2;;;;;;;19.35;71.43066;957.7631;;;;
2019/06/20 04:35:55;;;;;;;3.8;1.8;;;;;;;19.5;69.17676;957.7407;;;;
2019/06/20 04:38:38;;;;;;;3;1.9;;;;;;;19.42;69.03516;957.5977;;;;
2019/06/20 04:41:07;;;;;;;3;1.9;;;;;;;19.39;69.80566;957.5676;;;;
2019/06/20 04:43:32;;;;;;;2.7;1.8;;;;;;;19.33;69.47949;957.6175;;;;
2019/06/20 04:46:10;;;;;;;2.9;2;;;;;;;19.28;69.4707;957.6348;;;;
2019/06/20 04:48:30;;;;;;;2.8;1.9;;;;;;;19.33;69.91504;957.6108;;;;
2019/06/20 04:50:58;;;;;;;2.9;1.9;;;;;;;19.37;69.42578;957.7115;;;;
2019/06/20 04:53:20;;;;;;;4.1;1.9;;;;;;;19.43;69.20117;957.7014;;;;
2019/06/20 04:55:52;;;;;;;2.7;1.9;;;;;;;19.56;69.09277;957.6534;;;;
2019/06/20 04:58:21;;;;;;;3.4;1.9;;;;;;;19.35;69.44629;957.5928;;;;
2019/06/20 05:00:57;;;;;;;2.7;1.9;;;;;;;19.41;69.82031;957.6736;;;;
2019/06/20 05:03:31;;;;;;;2.6;2.1;;;;;;;19.34;69.11621;957.6354;;;;
2019/06/20 05:06:29;;;;;;;3.5;2;;;;;;;19.45;69.30957;957.6136;;;;
2019/06/20 05:08:51;;;;;;;3.3;1.9;;;;;;;19.38;68.47754;957.6469;;;;
2019/06/20 05:11:25;;;;;;;2.5;1.8;;;;;;;19.69;67.63184;957.587;;;;
2019/06/20 05:13:48;;;;;;;2.4;2;;;;;;;19.59;68.34668;957.606;;;;
2019/06/20 05:16:14;;;;;;;3;2.1;;;;;;;19.57;69.97363;957.6205;;;;
2019/06/20 05:18:39;;;;;;;3.6;2.1;;;;;;;19.53;69.13379;957.5829;;;;
2019/06/20 05:21:04;;;;;;;3.6;2;;;;;;;19.54;68.16016;957.6268;;;;
2019/06/20 05:23:29;;;;;;;2.4;1.8;;;;;;;19.53;68.20605;957.6755;;;;
2019/06/20 05:25:54;;;;;;;3.8;2;;;;;;;19.49;68.1416;957.798;;;;
2019/06/20 05:28:19;;;;;;;4.4;2.1;;;;;;;19.47;68.44434;957.8064;;;;
2019/06/20 05:30:44;;;;;;;4.6;2.2;;;;;;;19.35;69.20996;957.8393;;;;
2019/06/20 05:33:09;;;;;;;2.7;2.1;;;;;;;19.48;68.82031;957.9263;;;;
2019/06/20 05:35:34;;;;;;;2.5;2.1;;;;;;;19.69;68.5;957.9815;;;;
2019/06/20 05:37:59;;;;;;;3.2;2.1;;;;;;;19.83;68.01758;957.9495;;;;
2019/06/20 05:40:24;;;;;;;3.7;2.1;;;;;;;19.74;68.51953;957.9919;;;;
2019/06/20 05:42:50;;;;;;;3.3;2.3;;;;;;;19.66;68.94238;958.04;;;;
2019/06/20 05:45:15;;;;;;;2.2;2;;;;;;;19.68;69.25195;958.0552;;;;
2019/06/20 05:47:44;;;;;;;3.4;2;;;;;;;19.91;68.41699;958.1292;;;;
2019/06/20 05:50:09;;;;;;;2.9;2.2;;;;;;;20.03;68.59961;958.1046;;;;
2019/06/20 05:52:34;;;;;;;2.8;2.3;;;;;;;19.81;68.89648;958.1858;;;;
2019/06/20 05:54:59;;;;;;;4.7;2.5;;;;;;;19.92;68.9375;958.2755;;;;
2019/06/20 05:57:24;;;;;;;3.3;2.3;;;;;;;20.06;68.44238;958.3702;;;;
2019/06/20 05:59:49;;;;;;;3.4;2.4;;;;;;;19.92;69.13672;958.3995;;;;
2019/06/20 06:02:14;;;;;;;4;2.4;;;;;;;19.94;69.32813;958.4966;;;;
2019/06/20 06:04:39;;;;;;;3.5;2.6;;;;;;;19.83;69.59473;958.4782;;;;
2019/06/20 06:07:05;;;;;;;5.3;2.7;;;;;;;19.82;69.66113;958.4089;;;;
2019/06/20 06:09:30;;;;;;;3.2;2.6;;;;;;;19.89;69.53125;958.4224;;;;
2019/06/20 06:11:55;;;;;;;4.4;2.6;;;;;;;19.88;69.71777;958.4294;;;;
2019/06/20 06:14:20;;;;;;;4.5;2.5;;;;;;;20.03;69.70703;958.432;;;;
2019/06/20 06:16:45;;;;;;;3.6;2.6;;;;;;;19.98;69.92188;958.4437;;;;
2019/06/20 06:19:11;;;;;;;3.6;2.7;;;;;;;20.06;69.6416;958.4636;;;;
2019/06/20 06:21:36;;;;;;;3.8;2.7;;;;;;;20.08;69.44434;958.4899;;;;
2019/06/20 06:24:02;;;;;;;4.7;2.6;;;;;;;20.13;68.85156;958.502;;;;
2019/06/20 06:26:28;;;;;;;3.5;2.8;;;;;;;19.99;69.63086;958.4917;;;;
2019/06/20 06:28:55;;;;;;;3.1;2.3;;;;;;;19.99;69.7832;958.4106;;;;
2019/06/20 06:31:20;;;;;;;3.8;2.4;;;;;;;19.91;70.42871;958.4078;;;;
2019/06/20 06:33:45;;;;;;;4.2;2.5;;;;;;;19.89;69.89551;958.4265;;;;
2019/06/20 06:36:10;;;;;;;4.6;2.7;;;;;;;19.87;70.78516;958.4263;;;;
2019/06/20 06:38:36;;;;;;;4.2;3.1;;;;;;;19.71;72.58398;958.4399;;;;
2019/06/20 06:41:01;;;;;;;6;3.4;;;;;;;19.73;73.71484;958.4122;;;;
2019/06/20 06:43:27;;;;;;;5.4;3.3;;;;;;;19.6;78.13379;958.3466;;;;
2019/06/20 06:45:55;;;;;;;5.7;3.7;;;;;;;19.56;76.82324;958.2999;;;;
2019/06/20 06:48:20;;;;;;;6.4;3.4;;;;;;;19.44;77.03613;958.4453;;;;
2019/06/20 06:50:45;;;;;;;5.2;3.4;;;;;;;19.57;76.03613;958.4158;;;;
2019/06/20 06:53:10;;;;;;;4.7;3.7;;;;;;;19.44;77.48242;958.4055;;;;
2019/06/20 06:55:35;;;;;;;6.1;4.2;;;;;;;19.23;79.63184;958.3918;;;;
2019/06/20 06:58:02;;;;;;;6.8;3.9;;;;;;;19.11;78.59766;958.4136;;;;
2019/06/20 07:00:27;;;;;;;5.7;3.7;;;;;;;19.16;78.23242;958.403;;;;
2019/06/20 07:02:54;;;;;;;6.2;3.8;;;;;;;19.16;80.86133;958.3615;;;;
2019/06/20 07:05:19;;;;;;;6.4;4.4;;;;;;;19.18;83.03809;958.2696;;;;
2019/06/20 07:07:44;;;;;;;5.4;4.3;;;;;;;19.23;82.29492;958.2463;;;;
2019/06/20 07:10:11;;;;;;;5.8;4.3;;;;;;;19.22;82.98633;958.1813;;;;
2019/06/20 07:12:37;;;;;;;7.3;4.9;;;;;;;18.97;83.67773;958.1121;;;;
2019/06/20 07:15:02;;;;;;;6.7;4.9;;;;;;;18.95;82.79492;957.9807;;;;
2019/06/20 07:17:27;;;;;;;6.4;4.7;;;;;;;19.03;83.34766;957.9928;;;;
2019/06/20 07:19:52;;;;;;;5.7;4.8;;;;;;;19;83.4248;958;;;;
2019/06/20 07:22:18;;;;;;;7.8;4.7;;;;;;;18.88;84.61133;958.0795;;;;
2019/06/20 07:24:43;;;;;;;7.4;5;;;;;;;18.91;84.72168;958.1311;;;;
2019/06/20 07:27:08;;;;;;;7.5;4.8;;;;;;;18.94;86.08984;958.1421;;;;
2019/06/20 07:29:36;;;;;;;4.8;4;;;;;;;18.9;84.81445;958.2516;;;;
2019/06/20 07:32:01;;;;;;;5.9;4.1;;;;;;;19.01;85.91211;958.2427;;;;
2019/06/20 07:34:26;;;;;;;4.9;3.6;;;;;;;18.96;84.61523;958.1078;;;;
2019/06/20 07:36:51;;;;;;;4.6;3.8;;;;;;;19.04;86.36523;957.9977;;;;
2019/06/20 07:39:18;;;;;;;5.1;3.9;;;;;;;19.04;86.83496;957.9274;;;;
2019/06/20 07:41:43;;;;;;;5.1;3.7;;;;;;;19.06;85.94824;957.9089;;;;
2019/06/20 07:44:09;;;;;;;4.7;3.4;;;;;;;19.14;83.4873;957.9238;;;;
2019/06/20 07:46:34;;;;;;;4.2;3.5;;;;;;;19.16;84.14844;957.993;;;;
2019/06/20 07:49:01;;;;;;;6;4.1;;;;;;;19.1;82.7041;958.0875;;;;
2019/06/20 07:52:17;;;;;;;3.4;2.9;;;;;;;19.35;80.87207;958.1425;;;;
2019/06/20 07:54:42;;;;;;;5.1;3.5;;;;;;;19.52;78.7793;958.2297;;;;
2019/06/20 07:57:07;;;;;;;9.7;3.6;;;;;;;19.49;77.42188;958.2227;;;;
2019/06/20 07:59:32;;;;;;;5.8;3.5;;;;;;;19.69;77.25781;958.1822;;;;
2019/06/20 08:01:57;;;;;;;4.6;3.3;;;;;;;19.8;77.21777;958.2274;;;;
2019/06/20 08:04:22;;;;;;;5;3.3;;;;;;;19.84;77.30664;958.2341;;;;
2019/06/20 08:06:47;;;;;;;5.9;3.2;;;;;;;20.04;75.92969;958.2134;;;;
2019/06/20 08:09:12;;;;;;;5.5;3.5;;;;;;;20.08;76.75879;958.2219;;;;
2019/06/20 08:11:37;;;;;;;4.9;3.5;;;;;;;20.16;79.08105;958.1995;;;;
2019/06/20 08:14:03;;;;;;;4.7;3.8;;;;;;;20.19;78.21484;958.1682;;;;
2019/06/20 08:16:28;;;;;;;4.4;3.5;;;;;;;20.25;76.55469;958.195;;;;
2019/06/20 08:18:53;;;;;;;4.4;3.6;;;;;;;20.36;78.00977;958.2009;;;;
2019/06/20 08:21:18;;;;;;;4.2;3;;;;;;;20.6;74.69434;958.1753;;;;
2019/06/20 08:23:43;;;;;;;4.4;3.5;;;;;;;20.43;78.59766;958.1689;;;;
2019/06/20 08:26:08;;;;;;;4.4;3.4;;;;;;;20.54;77.54688;958.2157;;;;
2019/06/20 08:28:33;;;;;;;4;3.2;;;;;;;20.63;73.77051;958.1936;;;;
2019/06/20 08:30:58;;;;;;;4.4;3.4;;;;;;;20.67;73.56445;958.1306;;;;
2019/06/20 08:33:23;;;;;;;3.8;3.2;;;;;;;20.9;74.55859;958.2081;;;;
2019/06/20 08:35:48;;;;;;;4.6;3.5;;;;;;;20.81;75.10742;958.2126;;;;
2019/06/20 08:38:13;;;;;;;5.9;3.3;;;;;;;20.89;74.2373;958.1786;;;;
2019/06/20 08:40:41;;;;;;;4.2;3.5;;;;;;;20.82;74.88574;958.2017;;;;
2019/06/20 08:43:03;;;;;;;3.4;3.1;;;;;;;21.04;74.09863;958.2255;;;;
2019/06/20 08:45:28;;;;;;;9;3.7;;;;;;;21.35;74.99805;958.2336;;;;
2019/06/20 08:47:54;;;;;;;4.9;3.4;;;;;;;21.44;72.49023;958.2175;;;;
2019/06/20 08:50:19;;;;;;;4.4;3.3;;;;;;;21.48;71.11523;958.2364;;;;
2019/06/20 08:52:44;;;;;;;5.2;3.6;;;;;;;21.36;70.83691;958.2653;;;;
2019/06/20 08:55:09;;;;;;;4.5;3.3;;;;;;;21.47;71.9873;958.2707;;;;
2019/06/20 08:57:34;;;;;;;4.2;3.4;;;;;;;21.78;70.86914;958.202;;;;
2019/06/20 08:59:59;;;;;;;4.7;3.3;;;;;;;22;70.6084;958.2225;;;;
2019/06/20 09:02:24;;;;;;;4.8;3.5;;;;;;;22.09;67.51465;958.2439;;;;
2019/06/20 09:04:49;;;;;;;4.8;3.1;;;;;;;22;66.35547;958.2622;;;;
2019/06/20 09:07:14;;;;;;;3.7;3.2;;;;;;;21.72;68.53223;958.2865;;;;
2019/06/20 09:09:39;;;;;;;4.9;3.3;;;;;;;22.1;67.92969;958.2869;;;;
2019/06/20 09:12:04;;;;;;;4.3;3.4;;;;;;;22.09;67.01953;958.3127;;;;
2019/06/20 09:14:30;;;;;;;4.5;3.1;;;;;;;22.03;65.63867;958.3104;;;;
2019/06/20 09:16:55;;;;;;;4.2;3.2;;;;;;;22.05;66.35156;958.3258;;;;
2019/06/20 09:19:20;;;;;;;3.2;2.8;;;;;;;22.32;65.25684;958.4238;;;;
2019/06/20 09:21:47;;;;;;;3.7;2.7;;;;;;;22.65;65.24609;958.42;;;;
2019/06/20 09:24:12;;;;;;;3.5;2.6;;;;;;;22.86;62.88574;958.5604;;;;
2019/06/20 09:26:37;;;;;;;3;2.7;;;;;;;22.8;61.59961;958.5698;;;;
2019/06/20 09:29:03;;;;;;;2.9;2;;;;;;;22.87;60.81543;958.5669;;;;
2019/06/20 09:31:28;;;;;;;2.5;2.2;;;;;;;22.61;61.76172;958.5597;;;;
2019/06/20 09:33:54;;;;;;;3.4;2.3;;;;;;;22.42;61.81738;958.6394;;;;
2019/06/20 09:36:19;;;;;;;2.8;2.3;;;;;;;22.52;62.10449;958.5722;;;;
2019/06/20 09:38:46;;;;;;;3.2;2.2;;;;;;;22.3;61.68457;958.6591;;;;
2019/06/20 09:41:11;;;;;;;3.1;2.1;;;;;;;22.39;63.56445;958.6351;;;;
2019/06/20 09:43:36;;;;;;;4;2.2;;;;;;;22.83;61.80371;958.6141;;;;
2019/06/20 09:46:04;;;;;;;3;2;;;;;;;22.58;61.89844;958.5981;;;;
2019/06/20 09:48:29;;;;;;;4.1;2;;;;;;;22.74;59.73242;958.6458;;;;
2019/06/20 09:50:56;;;;;;;3.5;2.4;;;;;;;22.38;62.33301;958.6663;;;;
2019/06/20 09:53:21;;;;;;;3.3;2.4;;;;;;;22.48;62.57227;958.6373;;;;
2019/06/20 09:55:46;;;;;;;4.4;3.5;;;;;;;22.79;65.31445;958.5934;;;;
2019/06/20 09:58:11;;;;;;;4.2;2.4;;;;;;;23.02;62.06738;958.5706;;;;
2019/06/20 10:00:36;;;;;;;3.2;2.4;;;;;;;23.16;61.93262;958.5848;;;;
2019/06/20 10:03:02;;;;;;;2.4;2.1;;;;;;;23.15;59.72852;958.5823;;;;
2019/06/20 10:05:27;;;;;;;3.1;1.9;;;;;;;23.16;60.6543;958.6203;;;;
2019/06/20 10:07:52;;;;;;;3;1.9;;;;;;;23.23;57.82129;958.6412;;;;
2019/06/20 10:10:17;;;;;;;3.1;1.9;;;;;;;23.4;58.34082;958.6724;;;;
2019/06/20 10:12:43;;;;;;;2.5;1.6;;;;;;;23.37;56.07324;958.675;;;;
2019/06/20 10:15:09;;;;;;;2.7;2.1;;;;;;;23.05;59.13477;958.657;;;;
2019/06/20 10:17:34;;;;;;;2.3;2;;;;;;;23.26;58.5;958.6487;;;;
2019/06/20 10:20:00;;;;;;;4;3.1;;;;;;;22.81;58.21484;958.6428;;;;
2019/06/20 10:22:25;;;;;;;2.2;1.7;;;;;;;23.04;57.90234;958.6641;;;;
2019/06/20 10:24:50;;;;;;;3;1.5;;;;;;;22.97;56.84082;958.663;;;;
2019/06/20 10:27:15;;;;;;;2.1;1.3;;;;;;;23.21;52.49902;958.6919;;;;
2019/06/20 10:29:43;;;;;;;1.8;1.5;;;;;;;23.29;51.95215;958.6909;;;;
2019/06/20 10:32:08;;;;;;;1.2;1.1;;;;;;;23.17;51.91309;958.6344;;;;
2019/06/20 10:34:34;;;;;;;2.3;1.4;;;;;;;23.12;52.46484;958.6739;;;;
2019/06/20 10:36:59;;;;;;;2.4;1.3;;;;;;;23.21;52.91406;958.6852;;;;
2019/06/20 10:39:24;;;;;;;2.6;1.5;;;;;;;23.18;53.90527;958.7368;;;;
2019/06/20 10:41:49;;;;;;;3.1;1.3;;;;;;;23.13;52.95117;958.742;;;;
2019/06/20 10:44:14;;;;;;;1.8;1.1;;;;;;;23.28;52.68457;958.7115;;;;
2019/06/20 10:46:39;;;;;;;1.8;1.2;;;;;;;23.46;52.36328;958.6537;;;;
2019/06/20 10:49:05;;;;;;;2.1;1.4;;;;;;;23.63;55.24121;958.6581;;;;
2019/06/20 10:51:43;;;;;;;2.4;1.5;;;;;;;23.82;54.125;958.6199;;;;
2019/06/20 10:53:55;;;;;;;2.5;1.7;;;;;;;23.67;52.96777;958.6046;;;;
2019/06/20 10:56:20;;;;;;;2.1;1.9;;;;;;;23.82;54.38574;958.6122;;;;
2019/06/20 10:58:45;;;;;;;2.3;1.6;;;;;;;23.73;52.61914;958.5572;;;;
2019/06/20 11:01:12;;;;;;;3.4;1.5;;;;;;;23.76;52.68359;958.5474;;;;
2019/06/20 11:03:37;;;;;;;2.4;1.4;;;;;;;23.8;52.42676;958.56;;;;
2019/06/20 11:06:03;;;;;;;2.6;1.3;;;;;;;24.21;49.04395;958.5609;;;;
2019/06/20 11:08:28;;;;;;;2.2;1.3;;;;;;;23.93;49.81934;958.524;;;;
2019/06/20 11:10:53;;;;;;;1.5;1.4;;;;;;;24.18;50.29883;958.5346;;;;
2019/06/20 11:13:19;;;;;;;2.2;1.4;;;;;;;24.03;52.34668;958.4483;;;;
2019/06/20 11:15:44;;;;;;;1.8;1.2;;;;;;;24.03;51.65918;958.4897;;;;
2019/06/20 11:18:11;;;;;;;1.5;1.3;;;;;;;24.17;50.58105;958.3915;;;;
2019/06/20 11:20:37;;;;;;;1.8;1.3;;;;;;;24.14;48.32422;958.4017;;;;
2019/06/20 11:23:02;;;;;;;3.2;1.3;;;;;;;24.46;49.20215;958.34;;;;
2019/06/20 11:25:27;;;;;;;1.6;1.1;;;;;;;24.47;48.43066;958.4107;;;;
2019/06/20 11:27:52;;;;;;;1.9;1.1;;;;;;;24.53;48.25879;958.4426;;;;
2019/06/20 11:30:17;;;;;;;3.3;1.3;;;;;;;24.64;48.81738;958.4102;;;;
2019/06/20 11:32:42;;;;;;;1.9;1.5;;;;;;;24.4;50.26367;958.3231;;;;
2019/06/20 11:35:07;;;;;;;1.7;1.4;;;;;;;24.65;50.49316;958.2622;;;;
2019/06/20 11:37:35;;;;;;;2.2;1.3;;;;;;;24.83;48.64844;958.241;;;;
2019/06/20 11:40:00;;;;;;;2.1;1.5;;;;;;;24.78;49.71191;958.2315;;;;
2019/06/20 11:42:27;;;;;;;2.4;1.5;;;;;;;24.73;49.77832;958.2748;;;;
2019/06/20 11:44:52;;;;;;;2.3;1.4;;;;;;;24.67;48.78613;958.1969;;;;
2019/06/20 11:47:17;;;;;;;3.6;1.6;;;;;;;24.3;50.20605;958.2366;;;;
2019/06/20 11:49:45;;;;;;;2;1.3;;;;;;;24.68;50.86621;958.1701;;;;
2019/06/20 11:52:10;;;;;;;1.6;1.4;;;;;;;24.81;50.15625;958.116;;;;
2019/06/20 11:54:35;;;;;;;2.2;1.4;;;;;;;25.01;50.67773;958.0697;;;;
2019/06/20 11:57:00;;;;;;;2;1.6;;;;;;;24.96;50.19727;958.0581;;;;
2019/06/20 11:59:26;;;;;;;2.3;1.6;;;;;;;24.98;50.63867;958.0557;;;;
2019/06/20 12:01:51;;;;;;;1.8;1.6;;;;;;;25.08;50.26953;958.065;;;;
2019/06/20 12:04:16;;;;;;;1.9;1.5;;;;;;;25.06;50.55273;957.9487;;;;
2019/06/20 12:06:42;;;;;;;2;1.4;;;;;;;25.5;50.91113;957.9996;;;;
2019/06/20 12:09:07;;;;;;;2.8;1.3;;;;;;;25.61;48.26953;957.9372;;;;
2019/06/20 12:11:32;;;;;;;2.3;1.5;;;;;;;25.78;48.00098;957.9409;;;;
2019/06/20 12:13:57;;;;;;;2.8;1.6;;;;;;;25.93;47.91016;957.889;;;;
2019/06/20 12:16:22;;;;;;;2.2;1.4;;;;;;;26;47.07129;957.8948;;;;
2019/06/20 12:18:47;;;;;;;3.1;1.6;;;;;;;25.9;48.59766;957.9375;;;;
2019/06/20 12:21:12;;;;;;;2.6;1.5;;;;;;;25.93;48.50586;957.8961;;;;
2019/06/20 12:23:37;;;;;;;2.2;1.6;;;;;;;25.66;48.16602;957.8718;;;;
2019/06/20 12:26:02;;;;;;;1.8;1.5;;;;;;;25.76;49.17773;957.8481;;;;
2019/06/20 12:28:28;;;;;;;2.2;1.5;;;;;;;25.7;49.2793;957.8436;;;;
2019/06/20 12:30:53;;;;;;;1.9;1.5;;;;;;;26.11;49.01465;957.7792;;;;
2019/06/20 12:33:18;;;;;;;3;1.5;;;;;;;26.11;48.03613;957.8427;;;;
2019/06/20 12:35:43;;;;;;;1.9;1.4;;;;;;;26.58;46.91699;957.8528;;;;
2019/06/20 12:38:08;;;;;;;2.1;1.4;;;;;;;26.63;46.70801;957.8563;;;;
2019/06/20 12:40:33;;;;;;;1.7;1.5;;;;;;;26.48;47.32422;957.7364;;;;
2019/06/20 12:42:59;;;;;;;2.1;1.5;;;;;;;26.8;46.97559;957.8356;;;;
2019/06/20 12:45:24;;;;;;;2.1;1.6;;;;;;;26.38;46.24023;957.8497;;;;
2019/06/20 12:47:49;;;;;;;3.4;1.6;;;;;;;26.12;47.89355;957.8344;;;;
2019/06/20 12:50:14;;;;;;;2;1.4;;;;;;;25.61;48.56641;957.8683;;;;
2019/06/20 12:52:40;;;;;;;2.6;1.8;;;;;;;24.8;49.3457;957.8102;;;;
2019/06/20 12:55:05;;;;;;;1.7;1.5;;;;;;;25.02;49.75098;957.8497;;;;
2019/06/20 12:57:33;;;;;;;2.3;1.5;;;;;;;25.05;49.86133;957.8318;;;;
2019/06/20 12:59:59;;;;;;;2.3;1.6;;;;;;;25.05;49.56348;957.8588;;;;
2019/06/20 13:02:24;;;;;;;1.8;1.4;;;;;;;25.04;49.81348;957.9164;;;;
2019/06/20 13:04:49;;;;;;;2.8;1.5;;;;;;;24.96;50.19629;957.9049;;;;
2019/06/20 13:07:14;;;;;;;3.2;1.7;;;;;;;24.8;50;957.8997;;;;
2019/06/20 13:09:40;;;;;;;2.1;1.5;;;;;;;24.83;49.91992;957.9208;;;;
2019/06/20 13:12:05;;;;;;;3;1.4;;;;;;;24.46;51.17285;957.9402;;;;
2019/06/20 13:14:30;;;;;;;2.5;1.8;;;;;;;24.45;50.74414;958.0014;;;;
2019/06/20 13:16:56;;;;;;;2;1.5;;;;;;;24.31;51.03711;958.0291;;;;
2019/06/20 13:19:21;;;;;;;3.6;1.5;;;;;;;24.38;50.9502;958.0373;;;;
2019/06/20 13:21:49;;;;;;;3.7;1.4;;;;;;;24.1;50.44336;958.0002;;;;
2019/06/20 13:24:14;;;;;;;2.6;1.3;;;;;;;24.13;50.50684;958.0737;;;;
2019/06/20 13:26:39;;;;;;;2.6;1.7;;;;;;;23.84;50.49707;958.1152;;;;
2019/06/20 13:29:04;;;;;;;2.3;1.5;;;;;;;24.01;50.78906;958.0906;;;;
2019/06/20 13:31:30;;;;;;;4.2;1.6;;;;;;;23.87;52.15039;958.1308;;;;
2019/06/20 13:33:55;;;;;;;2.4;1.5;;;;;;;23.76;53.09766;958.2065;;;;
2019/06/20 13:36:20;;;;;;;2.5;1.5;;;;;;;23.82;51.34961;958.225;;;;
2019/06/20 13:38:45;;;;;;;2.3;1.3;;;;;;;23.77;49.39844;958.3061;;;;
2019/06/20 13:41:10;;;;;;;2.2;1.4;;;;;;;23.53;50.46289;958.3386;;;;
2019/06/20 13:43:35;;;;;;;1.7;1.2;;;;;;;23.42;51.30273;958.4255;;;;
2019/06/20 13:46:00;;;;;;;2.1;1.2;;;;;;;23.35;51.69824;958.4686;;;;
2019/06/20 13:48:28;;;;;;;2.4;1.3;;;;;;;23.35;52.16016;958.4551;;;;
2019/06/20 13:50:56;;;;;;;1.5;1.3;;;;;;;23.17;53.27637;958.4453;;;;
2019/06/20 13:53:23;;;;;;;2.2;1.3;;;;;;;23.2;54.97363;958.4709;;;;
2019/06/20 13:55:55;;;;;;;3.5;1.4;;;;;;;22.98;56.99512;958.5188;;;;
2019/06/20 13:58:28;;;;;;;1.7;1.4;;;;;;;22.77;59.54785;958.5808;;;;
2019/06/20 14:00:54;;;;;;;2.1;1.3;;;;;;;22.6;59.64355;958.6622;;;;
2019/06/20 14:03:19;;;;;;;2.4;1.4;;;;;;;22.48;60.06543;958.7745;;;;
2019/06/20 14:05:44;;;;;;;1.7;1.3;;;;;;;22.18;60.75684;958.8389;;;;
2019/06/20 14:08:09;;;;;;;2.1;1.3;;;;;;;21.75;64.38184;958.9255;;;;
2019/06/20 14:10:34;;;;;;;3.2;1.8;;;;;;;21.25;66.79688;958.9716;;;;
2019/06/20 14:12:59;;;;;;;6.6;2.2;;;;;;;21.06;68.80859;959.0284;;;;
2019/06/20 14:15:25;;;;;;;4.8;2.1;;;;;;;20.86;69.67188;959.0287;;;;
2019/06/20 14:17:52;;;;;;;4.2;2;;;;;;;20.7;73.44043;959.0545;;;;
2019/06/20 14:20:17;;;;;;;4.2;2.4;;;;;;;20.04;77.81348;959.0493;;;;
2019/06/20 14:22:42;;;;;;;3.3;2.4;;;;;;;19.88;78.66504;959.077;;;;
2019/06/20 14:25:07;;;;;;;4.7;3;;;;;;;19.72;81.17676;959.0078;;;;
2019/06/20 14:27:34;;;;;;;3.8;2.5;;;;;;;19.53;82.51465;959.0438;;;;
2019/06/20 14:29:59;;;;;;;4.8;2.9;;;;;;;19.53;84.15918;959.0083;;;;
2019/06/20 14:32:25;;;;;;;6;2.9;;;;;;;19.18;82.56836;959.0115;;;;
2019/06/20 14:34:50;;;;;;;5.8;3.1;;;;;;;19.18;82.83887;958.9306;;;;
2019/06/20 14:37:15;;;;;;;5.1;2.9;;;;;;;19.04;83.78516;958.9128;;;;
2019/06/20 14:39:40;;;;;;;4.1;3.1;;;;;;;18.88;83.7666;958.8309;;;;